Terminal Aerodrome Forecast
Issued by NWS

Home | Current Version | Previous Version | Text Only | Print | Product List | Glossary On
Versions: 1 2 3 4 5 6 7 8 9 10 11 12 13 14 15 16 17 18 19 20 21
174
FTUS43 KILX 281739
TAFBMI
TAF
KBMI 281739Z 2818/2918 20016G24KT P6SM BKN020
      TEMPO 2818/2822 SCT020 BKN035
     FM282200 20014G22KT P6SM VCTS SCT030CB BKN100
     FM290200 20009KT P6SM SCT035 BKN120
     FM291400 25012KT P6SM SCT030=

USA.gov is the U.S. government's official web portal to all federal, state and local government web resources and services.